sensor_id;sensor_type;location;lat;lon;timestamp;P1;durP1;ratioP1;P2;durP2;ratioP2
55288;SDS011;41154;45.394;5.734;2022-12-26T00:01:24;5.75;;;3.55;;
55288;SDS011;41154;45.394;5.734;2022-12-26T00:03:51;4.95;;;3.05;;
55288;SDS011;41154;45.394;5.734;2022-12-26T00:06:18;4.85;;;3.00;;
55288;SDS011;41154;45.394;5.734;2022-12-26T00:08:46;5.57;;;3.25;;
55288;SDS011;41154;45.394;5.734;2022-12-26T00:11:13;4.43;;;2.80;;
55288;SDS011;41154;45.394;5.734;2022-12-26T00:13:39;8.35;;;2.95;;
55288;SDS011;41154;45.394;5.734;2022-12-26T00:16:08;7.63;;;2.95;;
55288;SDS011;41154;45.394;5.734;2022-12-26T00:18:36;5.50;;;2.90;;
55288;SDS011;41154;45.394;5.734;2022-12-26T00:21:02;4.25;;;2.47;;
55288;SDS011;41154;45.394;5.734;2022-12-26T00:23:29;4.60;;;2.80;;
55288;SDS011;41154;45.394;5.734;2022-12-26T00:26:00;8.98;;;2.55;;
55288;SDS011;41154;45.394;5.734;2022-12-26T00:28:27;5.93;;;2.72;;
55288;SDS011;41154;45.394;5.734;2022-12-26T00:30:53;3.55;;;2.38;;
55288;SDS011;41154;45.394;5.734;2022-12-26T00:33:18;6.22;;;2.92;;
55288;SDS011;41154;45.394;5.734;2022-12-26T00:35:44;3.33;;;2.40;;
55288;SDS011;41154;45.394;5.734;2022-12-26T00:38:10;7.88;;;3.05;;
55288;SDS011;41154;45.394;5.734;2022-12-26T00:40:35;9.20;;;2.97;;
55288;SDS011;41154;45.394;5.734;2022-12-26T00:43:07;4.55;;;2.90;;
55288;SDS011;41154;45.394;5.734;2022-12-26T00:45:33;4.18;;;2.60;;
55288;SDS011;41154;45.394;5.734;2022-12-26T00:47:58;6.47;;;3.33;;
55288;SDS011;41154;45.394;5.734;2022-12-26T00:50:24;4.57;;;2.92;;
55288;SDS011;41154;45.394;5.734;2022-12-26T00:52:50;5.90;;;2.60;;
55288;SDS011;41154;45.394;5.734;2022-12-26T00:55:16;4.18;;;2.67;;
55288;SDS011;41154;45.394;5.734;2022-12-26T00:57:41;4.80;;;2.90;;
55288;SDS011;41154;45.394;5.734;2022-12-26T01:00:07;5.55;;;2.30;;
55288;SDS011;41154;45.394;5.734;2022-12-26T01:02:34;3.38;;;2.53;;
55288;SDS011;41154;45.394;5.734;2022-12-26T01:05:06;5.22;;;3.15;;
55288;SDS011;41154;45.394;5.734;2022-12-26T01:07:33;5.97;;;2.60;;
55288;SDS011;41154;45.394;5.734;2022-12-26T01:10:00;4.32;;;2.83;;
55288;SDS011;41154;45.394;5.734;2022-12-26T01:12:27;5.13;;;2.45;;
55288;SDS011;41154;45.394;5.734;2022-12-26T01:14:57;3.42;;;2.47;;
55288;SDS011;41154;45.394;5.734;2022-12-26T01:17:23;3.95;;;2.65;;
55288;SDS011;41154;45.394;5.734;2022-12-26T01:19:50;6.10;;;2.55;;
55288;SDS011;41154;45.394;5.734;2022-12-26T01:22:16;5.28;;;3.53;;
55288;SDS011;41154;45.394;5.734;2022-12-26T01:24:41;6.18;;;2.40;;
55288;SDS011;41154;45.394;5.734;2022-12-26T01:27:07;5.13;;;2.80;;
55288;SDS011;41154;45.394;5.734;2022-12-26T01:29:33;6.13;;;3.28;;
55288;SDS011;41154;45.394;5.734;2022-12-26T01:31:59;6.97;;;3.45;;
55288;SDS011;41154;45.394;5.734;2022-12-26T01:34:25;8.65;;;4.57;;
55288;SDS011;41154;45.394;5.734;2022-12-26T01:36:51;12.60;;;4.32;;
55288;SDS011;41154;45.394;5.734;2022-12-26T01:39:17;8.93;;;4.47;;
55288;SDS011;41154;45.394;5.734;2022-12-26T01:41:44;6.95;;;3.70;;
55288;SDS011;41154;45.394;5.734;2022-12-26T01:47:13;9.05;;;4.45;;
55288;SDS011;41154;45.394;5.734;2022-12-26T01:49:40;12.52;;;4.38;;
55288;SDS011;41154;45.394;5.734;2022-12-26T01:52:10;10.35;;;3.70;;
55288;SDS011;41154;45.394;5.734;2022-12-26T01:54:41;7.30;;;3.30;;
55288;SDS011;41154;45.394;5.734;2022-12-26T01:57:16;7.53;;;4.05;;
55288;SDS011;41154;45.394;5.734;2022-12-26T01:59:48;9.18;;;4.30;;
55288;SDS011;41154;45.394;5.734;2022-12-26T02:02:16;5.10;;;3.55;;
55288;SDS011;41154;45.394;5.734;2022-12-26T02:04:46;8.35;;;3.72;;
55288;SDS011;41154;45.394;5.734;2022-12-26T02:07:33;7.07;;;4.50;;
55288;SDS011;41154;45.394;5.734;2022-12-26T02:10:00;9.52;;;3.35;;
55288;SDS011;41154;45.394;5.734;2022-12-26T02:14:57;6.30;;;3.45;;
55288;SDS011;41154;45.394;5.734;2022-12-26T02:17:24;5.63;;;3.70;;
55288;SDS011;41154;45.394;5.734;2022-12-26T02:33:30;4.47;;;3.15;;
55288;SDS011;41154;45.394;5.734;2022-12-26T02:36:11;5.20;;;3.20;;
55288;SDS011;41154;45.394;5.734;2022-12-26T02:39:08;6.53;;;3.50;;
55288;SDS011;41154;45.394;5.734;2022-12-26T02:42:12;6.35;;;3.30;;
55288;SDS011;41154;45.394;5.734;2022-12-26T02:48:06;4.60;;;2.80;;
55288;SDS011;41154;45.394;5.734;2022-12-26T02:50:46;4.35;;;2.55;;
55288;SDS011;41154;45.394;5.734;2022-12-26T02:53:45;4.75;;;3.22;;
55288;SDS011;41154;45.394;5.734;2022-12-26T02:56:36;5.38;;;3.13;;
55288;SDS011;41154;45.394;5.734;2022-12-26T02:59:39;6.72;;;3.20;;
55288;SDS011;41154;45.394;5.734;2022-12-26T03:02:31;6.78;;;2.85;;
55288;SDS011;41154;45.394;5.734;2022-12-26T03:05:32;9.40;;;3.05;;
55288;SDS011;41154;45.394;5.734;2022-12-26T03:08:32;5.32;;;3.28;;
55288;SDS011;41154;45.394;5.734;2022-12-26T03:11:25;6.05;;;3.67;;
55288;SDS011;41154;45.394;5.734;2022-12-26T03:14:18;4.45;;;2.42;;
55288;SDS011;41154;45.394;5.734;2022-12-26T03:16:49;5.40;;;3.08;;
55288;SDS011;41154;45.394;5.734;2022-12-26T03:19:38;4.07;;;2.80;;
55288;SDS011;41154;45.394;5.734;2022-12-26T03:22:23;3.45;;;2.33;;
55288;SDS011;41154;45.394;5.734;2022-12-26T03:27:47;6.93;;;2.25;;
55288;SDS011;41154;45.394;5.734;2022-12-26T03:30:13;4.45;;;2.83;;
55288;SDS011;41154;45.394;5.734;2022-12-26T03:32:57;4.05;;;2.60;;
55288;SDS011;41154;45.394;5.734;2022-12-26T03:35:24;6.05;;;3.20;;
55288;SDS011;41154;45.394;5.734;2022-12-26T03:40:28;4.68;;;2.83;;
55288;SDS011;41154;45.394;5.734;2022-12-26T03:49:58;3.65;;;2.58;;
55288;SDS011;41154;45.394;5.734;2022-12-26T03:55:54;4.95;;;2.75;;
55288;SDS011;41154;45.394;5.734;2022-12-26T03:58:47;3.00;;;2.30;;
55288;SDS011;41154;45.394;5.734;2022-12-26T04:01:36;5.45;;;2.33;;
55288;SDS011;41154;45.394;5.734;2022-12-26T04:04:23;6.75;;;2.58;;
55288;SDS011;41154;45.394;5.734;2022-12-26T04:10:04;5.13;;;2.53;;
55288;SDS011;41154;45.394;5.734;2022-12-26T04:13:44;6.55;;;2.70;;
55288;SDS011;41154;45.394;5.734;2022-12-26T04:27:48;7.50;;;2.95;;
55288;SDS011;41154;45.394;5.734;2022-12-26T04:30:32;4.20;;;2.70;;
55288;SDS011;41154;45.394;5.734;2022-12-26T04:33:21;5.25;;;3.03;;
55288;SDS011;41154;45.394;5.734;2022-12-26T04:36:14;4.38;;;2.78;;
55288;SDS011;41154;45.394;5.734;2022-12-26T04:39:03;5.05;;;3.25;;
55288;SDS011;41154;45.394;5.734;2022-12-26T04:41:53;8.25;;;3.20;;
55288;SDS011;41154;45.394;5.734;2022-12-26T04:44:40;7.68;;;3.03;;
55288;SDS011;41154;45.394;5.734;2022-12-26T04:47:07;5.20;;;2.80;;
55288;SDS011;41154;45.394;5.734;2022-12-26T04:49:40;3.33;;;2.17;;
55288;SDS011;41154;45.394;5.734;2022-12-26T04:52:25;7.70;;;4.07;;
55288;SDS011;41154;45.394;5.734;2022-12-26T04:55:11;8.02;;;3.83;;
55288;SDS011;41154;45.394;5.734;2022-12-26T04:57:37;5.30;;;3.00;;
55288;SDS011;41154;45.394;5.734;2022-12-26T05:00:03;5.03;;;3.58;;
55288;SDS011;41154;45.394;5.734;2022-12-26T05:02:29;5.40;;;2.95;;
55288;SDS011;41154;45.394;5.734;2022-12-26T05:05:14;7.13;;;4.10;;
55288;SDS011;41154;45.394;5.734;2022-12-26T05:07:58;12.25;;;4.20;;
55288;SDS011;41154;45.394;5.734;2022-12-26T05:10:42;4.53;;;2.85;;
55288;SDS011;41154;45.394;5.734;2022-12-26T05:13:08;4.20;;;2.90;;
55288;SDS011;41154;45.394;5.734;2022-12-26T05:15:35;3.45;;;2.53;;
55288;SDS011;41154;45.394;5.734;2022-12-26T05:18:21;10.63;;;2.53;;
55288;SDS011;41154;45.394;5.734;2022-12-26T05:21:10;2.53;;;2.03;;
55288;SDS011;41154;45.394;5.734;2022-12-26T05:23:56;2.80;;;2.08;;
55288;SDS011;41154;45.394;5.734;2022-12-26T05:26:40;5.15;;;2.20;;
55288;SDS011;41154;45.394;5.734;2022-12-26T05:29:25;2.92;;;1.90;;
55288;SDS011;41154;45.394;5.734;2022-12-26T05:31:51;4.15;;;2.47;;
55288;SDS011;41154;45.394;5.734;2022-12-26T05:34:17;7.03;;;2.42;;
55288;SDS011;41154;45.394;5.734;2022-12-26T05:36:49;7.65;;;2.67;;
55288;SDS011;41154;45.394;5.734;2022-12-26T05:39:19;4.73;;;1.97;;
55288;SDS011;41154;45.394;5.734;2022-12-26T05:41:45;3.22;;;2.50;;
55288;SDS011;41154;45.394;5.734;2022-12-26T05:44:10;4.35;;;2.17;;
55288;SDS011;41154;45.394;5.734;2022-12-26T05:46:37;3.15;;;2.30;;
55288;SDS011;41154;45.394;5.734;2022-12-26T05:49:03;9.50;;;2.47;;
55288;SDS011;41154;45.394;5.734;2022-12-26T05:51:31;3.70;;;2.55;;
55288;SDS011;41154;45.394;5.734;2022-12-26T05:53:57;5.93;;;2.08;;
55288;SDS011;41154;45.394;5.734;2022-12-26T05:56:22;4.10;;;2.30;;
55288;SDS011;41154;45.394;5.734;2022-12-26T05:58:55;3.75;;;2.58;;
55288;SDS011;41154;45.394;5.734;2022-12-26T06:01:22;8.15;;;4.75;;
55288;SDS011;41154;45.394;5.734;2022-12-26T06:03:50;7.72;;;4.38;;
55288;SDS011;41154;45.394;5.734;2022-12-26T06:06:20;4.65;;;3.35;;
55288;SDS011;41154;45.394;5.734;2022-12-26T06:08:47;4.05;;;3.05;;
55288;SDS011;41154;45.394;5.734;2022-12-26T06:11:14;4.38;;;2.92;;
55288;SDS011;41154;45.394;5.734;2022-12-26T06:13:41;4.53;;;3.20;;
55288;SDS011;41154;45.394;5.734;2022-12-26T06:16:11;4.38;;;2.85;;
55288;SDS011;41154;45.394;5.734;2022-12-26T06:18:38;4.22;;;3.00;;
55288;SDS011;41154;45.394;5.734;2022-12-26T06:21:08;4.20;;;2.70;;
55288;SDS011;41154;45.394;5.734;2022-12-26T06:23:36;3.80;;;2.80;;
55288;SDS011;41154;45.394;5.734;2022-12-26T06:26:03;5.78;;;2.97;;
55288;SDS011;41154;45.394;5.734;2022-12-26T06:28:30;4.28;;;2.70;;
55288;SDS011;41154;45.394;5.734;2022-12-26T06:31:06;4.72;;;2.60;;
55288;SDS011;41154;45.394;5.734;2022-12-26T06:33:34;4.28;;;3.22;;
55288;SDS011;41154;45.394;5.734;2022-12-26T06:36:04;5.93;;;3.40;;
55288;SDS011;41154;45.394;5.734;2022-12-26T06:38:32;6.15;;;3.80;;
55288;SDS011;41154;45.394;5.734;2022-12-26T06:40:57;10.80;;;5.07;;
55288;SDS011;41154;45.394;5.734;2022-12-26T06:43:23;9.15;;;4.93;;
55288;SDS011;41154;45.394;5.734;2022-12-26T06:45:55;5.53;;;3.42;;
55288;SDS011;41154;45.394;5.734;2022-12-26T06:48:22;5.55;;;3.45;;
55288;SDS011;41154;45.394;5.734;2022-12-26T06:50:48;7.35;;;4.30;;
55288;SDS011;41154;45.394;5.734;2022-12-26T06:53:14;9.75;;;4.30;;
55288;SDS011;41154;45.394;5.734;2022-12-26T06:55:40;6.93;;;3.70;;
55288;SDS011;41154;45.394;5.734;2022-12-26T06:58:06;5.28;;;3.63;;
55288;SDS011;41154;45.394;5.734;2022-12-26T07:00:31;5.15;;;3.35;;
55288;SDS011;41154;45.394;5.734;2022-12-26T07:02:58;7.35;;;3.78;;
55288;SDS011;41154;45.394;5.734;2022-12-26T07:05:23;8.43;;;4.13;;
55288;SDS011;41154;45.394;5.734;2022-12-26T07:07:50;4.97;;;3.17;;
55288;SDS011;41154;45.394;5.734;2022-12-26T07:10:17;5.38;;;3.05;;
55288;SDS011;41154;45.394;5.734;2022-12-26T07:12:44;4.05;;;2.90;;
55288;SDS011;41154;45.394;5.734;2022-12-26T07:15:10;3.38;;;2.38;;
55288;SDS011;41154;45.394;5.734;2022-12-26T07:17:36;6.28;;;3.03;;
55288;SDS011;41154;45.394;5.734;2022-12-26T07:20:06;10.50;;;5.40;;
55288;SDS011;41154;45.394;5.734;2022-12-26T07:22:32;8.77;;;5.18;;
55288;SDS011;41154;45.394;5.734;2022-12-26T07:24:58;9.45;;;4.50;;
55288;SDS011;41154;45.394;5.734;2022-12-26T07:27:24;5.07;;;3.15;;
55288;SDS011;41154;45.394;5.734;2022-12-26T07:29:50;8.10;;;3.85;;
55288;SDS011;41154;45.394;5.734;2022-12-26T07:32:16;7.28;;;3.70;;
55288;SDS011;41154;45.394;5.734;2022-12-26T07:34:42;5.75;;;3.42;;
55288;SDS011;41154;45.394;5.734;2022-12-26T07:37:07;5.72;;;3.58;;
55288;SDS011;41154;45.394;5.734;2022-12-26T07:39:33;8.30;;;3.60;;
55288;SDS011;41154;45.394;5.734;2022-12-26T07:42:03;6.43;;;3.42;;
55288;SDS011;41154;45.394;5.734;2022-12-26T07:44:31;7.15;;;3.78;;
55288;SDS011;41154;45.394;5.734;2022-12-26T07:46:57;11.23;;;3.70;;
55288;SDS011;41154;45.394;5.734;2022-12-26T07:49:24;9.10;;;5.05;;
55288;SDS011;41154;45.394;5.734;2022-12-26T07:51:50;12.65;;;5.20;;
55288;SDS011;41154;45.394;5.734;2022-12-26T07:54:16;8.52;;;5.07;;
55288;SDS011;41154;45.394;5.734;2022-12-26T07:56:43;6.35;;;4.28;;
55288;SDS011;41154;45.394;5.734;2022-12-26T07:59:13;9.93;;;5.43;;
55288;SDS011;41154;45.394;5.734;2022-12-26T08:01:40;11.30;;;5.82;;
55288;SDS011;41154;45.394;5.734;2022-12-26T08:04:07;9.50;;;6.00;;
55288;SDS011;41154;45.394;5.734;2022-12-26T08:06:34;15.70;;;6.18;;
55288;SDS011;41154;45.394;5.734;2022-12-26T08:08:59;12.85;;;5.95;;
55288;SDS011;41154;45.394;5.734;2022-12-26T08:11:26;14.60;;;6.95;;
55288;SDS011;41154;45.394;5.734;2022-12-26T08:13:53;14.50;;;6.82;;
55288;SDS011;41154;45.394;5.734;2022-12-26T08:16:19;23.40;;;12.65;;
55288;SDS011;41154;45.394;5.734;2022-12-26T08:18:45;36.20;;;16.48;;
55288;SDS011;41154;45.394;5.734;2022-12-26T08:21:11;22.13;;;9.15;;
55288;SDS011;41154;45.394;5.734;2022-12-26T08:23:37;9.00;;;4.97;;
55288;SDS011;41154;45.394;5.734;2022-12-26T08:26:04;13.35;;;5.22;;
55288;SDS011;41154;45.394;5.734;2022-12-26T08:28:34;8.70;;;4.60;;
55288;SDS011;41154;45.394;5.734;2022-12-26T08:31:04;9.75;;;5.05;;
55288;SDS011;41154;45.394;5.734;2022-12-26T08:33:31;9.18;;;4.90;;
55288;SDS011;41154;45.394;5.734;2022-12-26T08:36:00;10.20;;;5.32;;
55288;SDS011;41154;45.394;5.734;2022-12-26T08:38:30;10.48;;;5.95;;
55288;SDS011;41154;45.394;5.734;2022-12-26T08:40:56;10.10;;;5.68;;
55288;SDS011;41154;45.394;5.734;2022-12-26T08:43:22;12.40;;;6.13;;
55288;SDS011;41154;45.394;5.734;2022-12-26T08:46:01;9.02;;;4.85;;
55288;SDS011;41154;45.394;5.734;2022-12-26T08:48:29;8.45;;;4.22;;
55288;SDS011;41154;45.394;5.734;2022-12-26T08:50:59;8.65;;;4.53;;
55288;SDS011;41154;45.394;5.734;2022-12-26T08:53:27;9.27;;;5.88;;
55288;SDS011;41154;45.394;5.734;2022-12-26T08:55:54;9.88;;;5.50;;
55288;SDS011;41154;45.394;5.734;2022-12-26T08:58:20;9.25;;;5.65;;
55288;SDS011;41154;45.394;5.734;2022-12-26T09:00:47;14.63;;;6.25;;
55288;SDS011;41154;45.394;5.734;2022-12-26T09:03:13;11.13;;;6.28;;
55288;SDS011;41154;45.394;5.734;2022-12-26T09:05:39;10.23;;;6.93;;
55288;SDS011;41154;45.394;5.734;2022-12-26T09:08:05;12.43;;;7.00;;
55288;SDS011;41154;45.394;5.734;2022-12-26T09:10:31;12.10;;;7.30;;
55288;SDS011;41154;45.394;5.734;2022-12-26T09:12:57;17.13;;;8.93;;
55288;SDS011;41154;45.394;5.734;2022-12-26T09:15:23;14.07;;;8.75;;
55288;SDS011;41154;45.394;5.734;2022-12-26T09:17:49;15.25;;;9.00;;
55288;SDS011;41154;45.394;5.734;2022-12-26T09:20:14;13.63;;;9.25;;
55288;SDS011;41154;45.394;5.734;2022-12-26T09:22:40;17.20;;;9.45;;
55288;SDS011;41154;45.394;5.734;2022-12-26T09:25:19;15.05;;;7.63;;
55288;SDS011;41154;45.394;5.734;2022-12-26T09:27:46;11.95;;;7.28;;
55288;SDS011;41154;45.394;5.734;2022-12-26T09:30:13;13.88;;;7.20;;
55288;SDS011;41154;45.394;5.734;2022-12-26T09:32:39;9.40;;;6.25;;
55288;SDS011;41154;45.394;5.734;2022-12-26T09:35:05;11.23;;;6.50;;
55288;SDS011;41154;45.394;5.734;2022-12-26T09:37:32;15.35;;;7.75;;
55288;SDS011;41154;45.394;5.734;2022-12-26T09:39:58;12.90;;;8.27;;
55288;SDS011;41154;45.394;5.734;2022-12-26T09:42:38;16.60;;;8.27;;
55288;SDS011;41154;45.394;5.734;2022-12-26T09:45:30;16.58;;;8.93;;
55288;SDS011;41154;45.394;5.734;2022-12-26T09:48:20;21.30;;;9.27;;
55288;SDS011;41154;45.394;5.734;2022-12-26T09:50:55;17.25;;;9.48;;
55288;SDS011;41154;45.394;5.734;2022-12-26T09:56:00;14.57;;;7.80;;
55288;SDS011;41154;45.394;5.734;2022-12-26T09:58:40;11.90;;;7.18;;
55288;SDS011;41154;45.394;5.734;2022-12-26T10:01:33;11.63;;;5.97;;
55288;SDS011;41154;45.394;5.734;2022-12-26T10:04:03;11.98;;;6.75;;
55288;SDS011;41154;45.394;5.734;2022-12-26T10:06:33;11.63;;;7.43;;
55288;SDS011;41154;45.394;5.734;2022-12-26T10:14:20;11.82;;;6.70;;
55288;SDS011;41154;45.394;5.734;2022-12-26T10:24:56;10.82;;;5.80;;
55288;SDS011;41154;45.394;5.734;2022-12-26T10:27:24;15.95;;;5.97;;
55288;SDS011;41154;45.394;5.734;2022-12-26T10:32:29;8.63;;;5.05;;
55288;SDS011;41154;45.394;5.734;2022-12-26T10:35:01;7.30;;;4.88;;
55288;SDS011;41154;45.394;5.734;2022-12-26T10:37:58;9.70;;;5.78;;
55288;SDS011;41154;45.394;5.734;2022-12-26T10:40:47;7.15;;;4.47;;
55288;SDS011;41154;45.394;5.734;2022-12-26T10:48:33;5.85;;;3.70;;
55288;SDS011;41154;45.394;5.734;2022-12-26T10:50:58;8.48;;;4.57;;
55288;SDS011;41154;45.394;5.734;2022-12-26T10:53:24;7.15;;;4.70;;
55288;SDS011;41154;45.394;5.734;2022-12-26T10:55:50;7.35;;;4.50;;
55288;SDS011;41154;45.394;5.734;2022-12-26T11:03:58;7.53;;;4.32;;
55288;SDS011;41154;45.394;5.734;2022-12-26T11:06:29;5.15;;;3.80;;
55288;SDS011;41154;45.394;5.734;2022-12-26T11:08:58;6.28;;;4.22;;
55288;SDS011;41154;45.394;5.734;2022-12-26T11:11:25;6.57;;;4.50;;
55288;SDS011;41154;45.394;5.734;2022-12-26T11:17:03;6.82;;;4.55;;
55288;SDS011;41154;45.394;5.734;2022-12-26T11:19:33;7.07;;;4.35;;
55288;SDS011;41154;45.394;5.734;2022-12-26T11:22:14;4.93;;;3.55;;
55288;SDS011;41154;45.394;5.734;2022-12-26T11:27:34;6.25;;;4.60;;
55288;SDS011;41154;45.394;5.734;2022-12-26T11:30:36;8.43;;;4.57;;
55288;SDS011;41154;45.394;5.734;2022-12-26T11:36:07;6.35;;;3.70;;
55288;SDS011;41154;45.394;5.734;2022-12-26T11:46:34;4.05;;;2.97;;
55288;SDS011;41154;45.394;5.734;2022-12-26T11:49:05;5.50;;;3.08;;
55288;SDS011;41154;45.394;5.734;2022-12-26T11:51:41;7.25;;;3.40;;
55288;SDS011;41154;45.394;5.734;2022-12-26T11:56:48;7.38;;;3.40;;
55288;SDS011;41154;45.394;5.734;2022-12-26T11:59:23;5.60;;;3.00;;
55288;SDS011;41154;45.394;5.734;2022-12-26T12:02:08;8.20;;;4.40;;
55288;SDS011;41154;45.394;5.734;2022-12-26T12:04:46;6.03;;;4.05;;
55288;SDS011;41154;45.394;5.734;2022-12-26T12:07:17;6.85;;;4.07;;
55288;SDS011;41154;45.394;5.734;2022-12-26T12:35:14;6.90;;;4.00;;
55288;SDS011;41154;45.394;5.734;2022-12-26T12:46:29;4.88;;;3.45;;
55288;SDS011;41154;45.394;5.734;2022-12-26T12:49:18;6.20;;;3.75;;
55288;SDS011;41154;45.394;5.734;2022-12-26T13:02:36;7.90;;;3.50;;
55288;SDS011;41154;45.394;5.734;2022-12-26T13:05:15;5.13;;;3.20;;
55288;SDS011;41154;45.394;5.734;2022-12-26T13:13:41;5.50;;;2.85;;
55288;SDS011;41154;45.394;5.734;2022-12-26T13:16:13;7.53;;;3.47;;
55288;SDS011;41154;45.394;5.734;2022-12-26T13:18:44;3.85;;;2.28;;
55288;SDS011;41154;45.394;5.734;2022-12-26T13:21:15;6.15;;;2.90;;
55288;SDS011;41154;45.394;5.734;2022-12-26T13:23:54;6.55;;;2.88;;
55288;SDS011;41154;45.394;5.734;2022-12-26T13:29:43;5.40;;;2.95;;
55288;SDS011;41154;45.394;5.734;2022-12-26T13:32:23;3.85;;;2.47;;
55288;SDS011;41154;45.394;5.734;2022-12-26T13:42:35;5.13;;;3.20;;
55288;SDS011;41154;45.394;5.734;2022-12-26T13:45:53;10.98;;;4.32;;
55288;SDS011;41154;45.394;5.734;2022-12-26T13:51:00;6.28;;;4.10;;
55288;SDS011;41154;45.394;5.734;2022-12-26T13:53:32;10.82;;;4.72;;
55288;SDS011;41154;45.394;5.734;2022-12-26T13:56:04;6.70;;;4.13;;
55288;SDS011;41154;45.394;5.734;2022-12-26T13:59:03;6.88;;;3.65;;
55288;SDS011;41154;45.394;5.734;2022-12-26T14:12:53;5.78;;;3.58;;
55288;SDS011;41154;45.394;5.734;2022-12-26T14:16:12;11.48;;;4.65;;
55288;SDS011;41154;45.394;5.734;2022-12-26T14:18:31;9.00;;;4.45;;
55288;SDS011;41154;45.394;5.734;2022-12-26T14:35:04;6.32;;;3.80;;
55288;SDS011;41154;45.394;5.734;2022-12-26T14:37:47;9.60;;;4.50;;
55288;SDS011;41154;45.394;5.734;2022-12-26T14:40:30;9.18;;;4.68;;
55288;SDS011;41154;45.394;5.734;2022-12-26T14:53:32;7.03;;;4.25;;
55288;SDS011;41154;45.394;5.734;2022-12-26T15:09:45;7.55;;;3.50;;
55288;SDS011;41154;45.394;5.734;2022-12-26T15:12:48;9.68;;;3.78;;
55288;SDS011;41154;45.394;5.734;2022-12-26T15:32:09;4.75;;;2.55;;
55288;SDS011;41154;45.394;5.734;2022-12-26T15:34:51;6.50;;;3.85;;
55288;SDS011;41154;45.394;5.734;2022-12-26T15:45:47;8.13;;;4.00;;
55288;SDS011;41154;45.394;5.734;2022-12-26T15:51:17;6.85;;;4.13;;
55288;SDS011;41154;45.394;5.734;2022-12-26T16:02:46;7.65;;;4.00;;
55288;SDS011;41154;45.394;5.734;2022-12-26T16:08:34;5.78;;;3.50;;
55288;SDS011;41154;45.394;5.734;2022-12-26T16:11:20;7.22;;;3.13;;
55288;SDS011;41154;45.394;5.734;2022-12-26T16:13:52;6.15;;;3.60;;
55288;SDS011;41154;45.394;5.734;2022-12-26T16:16:29;7.95;;;3.22;;
55288;SDS011;41154;45.394;5.734;2022-12-26T16:21:51;6.80;;;4.10;;
55288;SDS011;41154;45.394;5.734;2022-12-26T16:24:48;6.70;;;3.67;;
55288;SDS011;41154;45.394;5.734;2022-12-26T16:27:17;6.78;;;4.00;;
55288;SDS011;41154;45.394;5.734;2022-12-26T16:29:45;8.20;;;4.22;;
55288;SDS011;41154;45.394;5.734;2022-12-26T16:32:16;9.27;;;5.25;;
55288;SDS011;41154;45.394;5.734;2022-12-26T16:34:44;6.82;;;4.20;;
55288;SDS011;41154;45.394;5.734;2022-12-26T16:37:21;5.55;;;3.92;;
55288;SDS011;41154;45.394;5.734;2022-12-26T16:40:13;5.57;;;3.83;;
55288;SDS011;41154;45.394;5.734;2022-12-26T16:42:44;8.80;;;4.85;;
55288;SDS011;41154;45.394;5.734;2022-12-26T16:45:18;6.65;;;3.95;;
55288;SDS011;41154;45.394;5.734;2022-12-26T16:47:45;8.35;;;4.85;;
55288;SDS011;41154;45.394;5.734;2022-12-26T16:50:23;9.73;;;4.60;;
55288;SDS011;41154;45.394;5.734;2022-12-26T16:56:20;7.13;;;4.78;;
55288;SDS011;41154;45.394;5.734;2022-12-26T16:59:00;7.75;;;4.28;;
55288;SDS011;41154;45.394;5.734;2022-12-26T17:01:29;13.68;;;6.43;;
55288;SDS011;41154;45.394;5.734;2022-12-26T17:04:00;8.10;;;5.40;;
55288;SDS011;41154;45.394;5.734;2022-12-26T17:06:33;10.02;;;5.68;;
55288;SDS011;41154;45.394;5.734;2022-12-26T17:09:08;15.25;;;7.30;;
55288;SDS011;41154;45.394;5.734;2022-12-26T17:11:37;18.00;;;8.30;;
55288;SDS011;41154;45.394;5.734;2022-12-26T17:14:16;20.25;;;8.88;;
55288;SDS011;41154;45.394;5.734;2022-12-26T17:16:46;16.58;;;8.20;;
55288;SDS011;41154;45.394;5.734;2022-12-26T17:19:22;16.90;;;7.55;;
55288;SDS011;41154;45.394;5.734;2022-12-26T17:24:45;14.82;;;7.43;;
55288;SDS011;41154;45.394;5.734;2022-12-26T17:27:22;19.10;;;9.25;;
55288;SDS011;41154;45.394;5.734;2022-12-26T17:29:51;13.25;;;6.75;;
55288;SDS011;41154;45.394;5.734;2022-12-26T17:32:38;9.07;;;4.90;;
55288;SDS011;41154;45.394;5.734;2022-12-26T17:35:16;5.32;;;3.65;;
55288;SDS011;41154;45.394;5.734;2022-12-26T17:37:50;7.10;;;4.05;;
55288;SDS011;41154;45.394;5.734;2022-12-26T17:40:34;9.02;;;4.45;;
55288;SDS011;41154;45.394;5.734;2022-12-26T17:45:34;8.70;;;4.32;;
55288;SDS011;41154;45.394;5.734;2022-12-26T17:48:00;10.80;;;4.45;;
55288;SDS011;41154;45.394;5.734;2022-12-26T17:50:33;6.25;;;4.07;;
55288;SDS011;41154;45.394;5.734;2022-12-26T17:53:02;6.47;;;3.67;;
55288;SDS011;41154;45.394;5.734;2022-12-26T17:55:47;10.88;;;3.45;;
55288;SDS011;41154;45.394;5.734;2022-12-26T17:58:13;5.15;;;3.15;;
55288;SDS011;41154;45.394;5.734;2022-12-26T18:00:40;5.55;;;2.88;;
55288;SDS011;41154;45.394;5.734;2022-12-26T18:03:07;5.07;;;3.17;;
55288;SDS011;41154;45.394;5.734;2022-12-26T18:05:33;5.82;;;2.92;;
55288;SDS011;41154;45.394;5.734;2022-12-26T18:08:00;5.53;;;3.17;;
55288;SDS011;41154;45.394;5.734;2022-12-26T18:10:27;10.43;;;5.15;;
55288;SDS011;41154;45.394;5.734;2022-12-26T18:12:55;6.28;;;3.47;;
55288;SDS011;41154;45.394;5.734;2022-12-26T18:15:22;4.97;;;2.58;;
55288;SDS011;41154;45.394;5.734;2022-12-26T18:17:50;6.80;;;3.42;;
55288;SDS011;41154;45.394;5.734;2022-12-26T18:20:20;4.28;;;2.78;;
55288;SDS011;41154;45.394;5.734;2022-12-26T18:22:48;3.88;;;2.38;;
55288;SDS011;41154;45.394;5.734;2022-12-26T18:25:14;5.00;;;3.33;;
55288;SDS011;41154;45.394;5.734;2022-12-26T18:27:41;2.92;;;2.10;;
55288;SDS011;41154;45.394;5.734;2022-12-26T18:30:11;2.28;;;1.48;;
55288;SDS011;41154;45.394;5.734;2022-12-26T18:32:43;3.10;;;2.25;;
55288;SDS011;41154;45.394;5.734;2022-12-26T18:35:10;3.25;;;2.65;;
55288;SDS011;41154;45.394;5.734;2022-12-26T18:37:36;3.22;;;2.10;;
55288;SDS011;41154;45.394;5.734;2022-12-26T18:40:03;3.97;;;2.00;;
55288;SDS011;41154;45.394;5.734;2022-12-26T18:42:29;2.83;;;1.90;;
55288;SDS011;41154;45.394;5.734;2022-12-26T18:44:55;2.92;;;2.33;;
55288;SDS011;41154;45.394;5.734;2022-12-26T18:47:21;4.80;;;2.05;;
55288;SDS011;41154;45.394;5.734;2022-12-26T18:49:47;3.42;;;1.73;;
55288;SDS011;41154;45.394;5.734;2022-12-26T18:52:14;6.00;;;2.00;;
55288;SDS011;41154;45.394;5.734;2022-12-26T18:54:40;2.90;;;2.00;;
55288;SDS011;41154;45.394;5.734;2022-12-26T18:57:06;5.00;;;2.58;;
55288;SDS011;41154;45.394;5.734;2022-12-26T18:59:37;3.03;;;1.85;;
55288;SDS011;41154;45.394;5.734;2022-12-26T19:02:02;3.63;;;2.35;;
55288;SDS011;41154;45.394;5.734;2022-12-26T19:04:28;3.65;;;2.20;;
55288;SDS011;41154;45.394;5.734;2022-12-26T19:06:54;5.03;;;3.05;;
55288;SDS011;41154;45.394;5.734;2022-12-26T19:09:19;7.10;;;2.90;;
55288;SDS011;41154;45.394;5.734;2022-12-26T19:11:45;5.10;;;3.13;;
55288;SDS011;41154;45.394;5.734;2022-12-26T19:14:15;5.97;;;3.90;;
55288;SDS011;41154;45.394;5.734;2022-12-26T19:16:44;4.93;;;3.55;;
55288;SDS011;41154;45.394;5.734;2022-12-26T19:19:10;5.45;;;3.35;;
55288;SDS011;41154;45.394;5.734;2022-12-26T19:21:35;2.92;;;2.38;;
55288;SDS011;41154;45.394;5.734;2022-12-26T19:24:01;4.60;;;3.10;;
55288;SDS011;41154;45.394;5.734;2022-12-26T19:26:27;3.90;;;2.80;;
55288;SDS011;41154;45.394;5.734;2022-12-26T19:28:53;7.80;;;3.83;;
55288;SDS011;41154;45.394;5.734;2022-12-26T19:31:20;6.00;;;3.80;;
55288;SDS011;41154;45.394;5.734;2022-12-26T19:33:47;7.88;;;3.67;;
55288;SDS011;41154;45.394;5.734;2022-12-26T19:36:14;4.65;;;2.95;;
55288;SDS011;41154;45.394;5.734;2022-12-26T19:38:41;4.80;;;2.55;;
55288;SDS011;41154;45.394;5.734;2022-12-26T19:41:08;2.88;;;1.95;;
55288;SDS011;41154;45.394;5.734;2022-12-26T19:43:36;4.68;;;2.33;;